sensor_id;sensor_type;location;lat;lon;timestamp;pressure;altitude;pressure_sealevel;temperature;humidity
29825;BME280;16713;52.916;12.834;2023-04-01T00:01:14;99019.94;;;8.87;87.99
29825;BME280;16713;52.916;12.834;2023-04-01T00:03:41;99020.72;;;8.88;87.70
29825;BME280;16713;52.916;12.834;2023-04-01T00:06:09;99019.19;;;8.94;88.57
29825;BME280;16713;52.916;12.834;2023-04-01T00:08:36;99027.75;;;8.89;88.90
29825;BME280;16713;52.916;12.834;2023-04-01T00:11:02;99026.59;;;8.90;88.86
29825;BME280;16713;52.916;12.834;2023-04-01T00:13:29;99016.84;;;8.96;86.83
29825;BME280;16713;52.916;12.834;2023-04-01T00:15:56;99032.50;;;8.99;87.22
29825;BME280;16713;52.916;12.834;2023-04-01T00:18:25;99027.78;;;8.96;87.00
29825;BME280;16713;52.916;12.834;2023-04-01T00:20:52;99022.31;;;8.92;87.91
29825;BME280;16713;52.916;12.834;2023-04-01T00:23:19;99023.88;;;8.90;87.31
29825;BME280;16713;52.916;12.834;2023-04-01T00:25:46;99022.72;;;8.94;88.36
29825;BME280;16713;52.916;12.834;2023-04-01T00:28:19;99025.03;;;8.89;87.68
29825;BME280;16713;52.916;12.834;2023-04-01T00:30:46;99019.94;;;8.87;87.53
29825;BME280;16713;52.916;12.834;2023-04-01T00:33:13;99019.56;;;8.89;88.22
29825;BME280;16713;52.916;12.834;2023-04-01T00:35:39;99023.47;;;8.95;86.92
29825;BME280;16713;52.916;12.834;2023-04-01T00:38:06;99025.00;;;8.85;87.93
29825;BME280;16713;52.916;12.834;2023-04-01T00:40:36;99025.00;;;8.82;88.42
29825;BME280;16713;52.916;12.834;2023-04-01T00:43:11;99026.56;;;8.83;87.22
29825;BME280;16713;52.916;12.834;2023-04-01T00:45:41;99018.38;;;8.86;87.06
29825;BME280;16713;52.916;12.834;2023-04-01T00:48:29;99017.56;;;8.82;87.83
29825;BME280;16713;52.916;12.834;2023-04-01T00:51:02;99023.81;;;8.79;88.73
29825;BME280;16713;52.916;12.834;2023-04-01T00:53:31;99024.19;;;8.78;88.18
29825;BME280;16713;52.916;12.834;2023-04-01T00:56:07;99024.59;;;8.80;87.51
29825;BME280;16713;52.916;12.834;2023-04-01T00:58:40;99026.56;;;8.83;88.66
29825;BME280;16713;52.916;12.834;2023-04-01T01:01:09;99017.94;;;8.81;87.47
29825;BME280;16713;52.916;12.834;2023-04-01T01:03:36;99024.63;;;8.87;87.04
29825;BME280;16713;52.916;12.834;2023-04-01T01:09:19;99022.66;;;8.84;87.68
29825;BME280;16713;52.916;12.834;2023-04-01T01:36:02;99025.41;;;8.87;88.65
29825;BME280;16713;52.916;12.834;2023-04-01T01:38:32;99034.03;;;8.93;88.30
29825;BME280;16713;52.916;12.834;2023-04-01T01:41:01;99028.16;;;8.91;87.91
29825;BME280;16713;52.916;12.834;2023-04-01T01:43:42;99036.75;;;8.89;88.94
29825;BME280;16713;52.916;12.834;2023-04-01T01:46:13;99037.56;;;8.97;87.07
29825;BME280;16713;52.916;12.834;2023-04-01T01:48:41;99040.72;;;9.02;88.24
29825;BME280;16713;52.916;12.834;2023-04-01T01:51:09;99045.81;;;9.07;88.40
29825;BME280;16713;52.916;12.834;2023-04-01T01:53:36;99043.88;;;9.11;86.33
29825;BME280;16713;52.916;12.834;2023-04-01T01:56:03;99045.03;;;9.10;86.84
29825;BME280;16713;52.916;12.834;2023-04-01T01:58:34;99045.44;;;9.12;87.35
29825;BME280;16713;52.916;12.834;2023-04-01T02:01:10;99043.47;;;9.09;86.43
29825;BME280;16713;52.916;12.834;2023-04-01T02:03:39;99039.91;;;8.98;87.26
29825;BME280;16713;52.916;12.834;2023-04-01T02:06:10;99038.75;;;8.99;88.11
29825;BME280;16713;52.916;12.834;2023-04-01T02:09:23;99039.91;;;8.98;88.13
29825;BME280;16713;52.916;12.834;2023-04-01T02:11:33;99046.94;;;9.03;87.63
29825;BME280;16713;52.916;12.834;2023-04-01T02:14:05;99044.97;;;9.00;88.14
29825;BME280;16713;52.916;12.834;2023-04-01T02:16:37;99039.53;;;8.96;88.63
29825;BME280;16713;52.916;12.834;2023-04-01T02:19:07;99044.22;;;8.99;87.77
29825;BME280;16713;52.916;12.834;2023-04-01T02:21:36;99039.53;;;8.96;87.29
29825;BME280;16713;52.916;12.834;2023-04-01T02:24:08;99046.13;;;8.92;88.17
29825;BME280;16713;52.916;12.834;2023-04-01T02:26:36;99047.31;;;8.91;88.02
29825;BME280;16713;52.916;12.834;2023-04-01T02:29:03;99046.09;;;8.85;88.70
29825;BME280;16713;52.916;12.834;2023-04-01T02:31:31;99050.75;;;8.81;89.20
29825;BME280;16713;52.916;12.834;2023-04-01T02:33:58;99048.78;;;8.74;88.66
29825;BME280;16713;52.916;12.834;2023-04-01T02:36:25;99055.47;;;8.80;88.40
29825;BME280;16713;52.916;12.834;2023-04-01T02:38:52;99055.06;;;8.78;89.06
29825;BME280;16713;52.916;12.834;2023-04-01T02:41:18;99052.72;;;8.80;88.39
29825;BME280;16713;52.916;12.834;2023-04-01T02:43:45;99058.97;;;8.81;88.41
29825;BME280;16713;52.916;12.834;2023-04-01T02:46:11;99062.88;;;8.87;89.39
29825;BME280;16713;52.916;12.834;2023-04-01T02:48:38;99064.81;;;8.79;88.42
29825;BME280;16713;52.916;12.834;2023-04-01T02:51:04;99062.44;;;8.74;87.90
29825;BME280;16713;52.916;12.834;2023-04-01T02:53:31;99061.66;;;8.77;88.91
29825;BME280;16713;52.916;12.834;2023-04-01T02:55:57;99058.16;;;8.77;87.81
29825;BME280;16713;52.916;12.834;2023-04-01T02:58:23;99064.78;;;8.76;88.04
29825;BME280;16713;52.916;12.834;2023-04-01T03:00:50;99062.88;;;8.87;87.76
29825;BME280;16713;52.916;12.834;2023-04-01T03:03:17;99070.34;;;8.90;87.30
29825;BME280;16713;52.916;12.834;2023-04-01T03:05:43;99066.81;;;8.86;89.07
29825;BME280;16713;52.916;12.834;2023-04-01T03:08:10;99064.13;;;9.00;87.62
29825;BME280;16713;52.916;12.834;2023-04-01T03:10:36;99066.09;;;9.03;86.51
29825;BME280;16713;52.916;12.834;2023-04-01T03:13:03;99067.31;;;9.12;86.63
29825;BME280;16713;52.916;12.834;2023-04-01T03:15:29;99080.97;;;9.09;86.18
29825;BME280;16713;52.916;12.834;2023-04-01T03:17:56;99073.13;;;9.04;86.04
29825;BME280;16713;52.916;12.834;2023-04-01T03:20:23;99079.38;;;9.01;87.39
29825;BME280;16713;52.916;12.834;2023-04-01T03:22:49;99072.25;;;8.86;87.44
29825;BME280;16713;52.916;12.834;2023-04-01T03:25:15;99075.00;;;8.86;86.47
29825;BME280;16713;52.916;12.834;2023-04-01T03:27:42;99080.00;;;8.73;86.94
29825;BME280;16713;52.916;12.834;2023-04-01T03:30:09;99083.53;;;8.77;88.22
29825;BME280;16713;52.916;12.834;2023-04-01T03:32:35;99082.72;;;8.70;87.89
29825;BME280;16713;52.916;12.834;2023-04-01T03:35:02;99082.38;;;8.75;87.69
29825;BME280;16713;52.916;12.834;2023-04-01T03:37:29;99088.13;;;8.63;88.38
29825;BME280;16713;52.916;12.834;2023-04-01T03:39:55;99087.41;;;8.66;88.45
29825;BME280;16713;52.916;12.834;2023-04-01T03:42:22;99088.13;;;8.63;89.27
29825;BME280;16713;52.916;12.834;2023-04-01T03:44:48;99093.66;;;8.70;89.33
29825;BME280;16713;52.916;12.834;2023-04-01T03:47:15;99093.25;;;8.64;88.04
29825;BME280;16713;52.916;12.834;2023-04-01T03:49:42;99095.94;;;8.61;89.46
29825;BME280;16713;52.916;12.834;2023-04-01T03:52:10;99096.72;;;8.61;88.24
29825;BME280;16713;52.916;12.834;2023-04-01T03:54:37;99099.44;;;8.58;89.02
29825;BME280;16713;52.916;12.834;2023-04-01T03:57:03;99098.31;;;8.69;89.05
29825;BME280;16713;52.916;12.834;2023-04-01T03:59:30;99100.69;;;8.74;88.53
29825;BME280;16713;52.916;12.834;2023-04-01T04:01:57;99097.56;;;8.69;87.75
29825;BME280;16713;52.916;12.834;2023-04-01T04:04:23;99093.97;;;8.61;89.48
29825;BME280;16713;52.916;12.834;2023-04-01T04:06:50;99104.97;;;8.68;88.82
29825;BME280;16713;52.916;12.834;2023-04-01T04:09:17;99108.44;;;8.62;88.11
29825;BME280;16713;52.916;12.834;2023-04-01T04:11:43;99104.19;;;8.71;89.10
29825;BME280;16713;52.916;12.834;2023-04-01T04:14:10;99112.69;;;8.56;89.90
29825;BME280;16713;52.916;12.834;2023-04-01T04:16:36;99105.63;;;8.55;88.11
29825;BME280;16713;52.916;12.834;2023-04-01T04:19:03;99115.06;;;8.61;89.94
29825;BME280;16713;52.916;12.834;2023-04-01T04:21:30;99113.09;;;8.61;88.91
29825;BME280;16713;52.916;12.834;2023-04-01T04:23:58;99112.34;;;8.61;90.12
29825;BME280;16713;52.916;12.834;2023-04-01T04:26:25;99110.44;;;8.68;88.10
29825;BME280;16713;52.916;12.834;2023-04-01T04:28:53;99115.47;;;8.66;88.38
29825;BME280;16713;52.916;12.834;2023-04-01T04:31:21;99121.34;;;8.65;87.99
29825;BME280;16713;52.916;12.834;2023-04-01T04:33:48;99123.31;;;8.68;89.24
29825;BME280;16713;52.916;12.834;2023-04-01T04:36:15;99128.38;;;8.66;89.43
29825;BME280;16713;52.916;12.834;2023-04-01T04:38:42;99131.13;;;8.69;89.56
29825;BME280;16713;52.916;12.834;2023-04-01T04:41:13;99136.19;;;8.71;87.97
29825;BME280;16713;52.916;12.834;2023-04-01T04:43:40;99127.66;;;8.72;89.05
29825;BME280;16713;52.916;12.834;2023-04-01T04:46:09;99136.66;;;8.76;89.43
29825;BME280;16713;52.916;12.834;2023-04-01T04:48:36;99136.69;;;8.80;88.14
29825;BME280;16713;52.916;12.834;2023-04-01T04:51:03;99139.41;;;8.80;88.38
29825;BME280;16713;52.916;12.834;2023-04-01T04:53:29;99139.03;;;8.81;88.28
29825;BME280;16713;52.916;12.834;2023-04-01T04:55:56;99146.44;;;8.81;89.29
29825;BME280;16713;52.916;12.834;2023-04-01T04:58:22;99144.47;;;8.78;89.60
29825;BME280;16713;52.916;12.834;2023-04-01T05:00:49;99147.97;;;8.75;88.43
29825;BME280;16713;52.916;12.834;2023-04-01T05:03:15;99146.41;;;8.77;89.40
29825;BME280;16713;52.916;12.834;2023-04-01T05:05:48;99147.97;;;8.75;89.57
29825;BME280;16713;52.916;12.834;2023-04-01T05:08:15;99146.41;;;8.74;88.53
29825;BME280;16713;52.916;12.834;2023-04-01T05:10:42;99156.28;;;8.38;88.04
29825;BME280;16713;52.916;12.834;2023-04-01T05:13:08;99159.47;;;8.47;88.99
29825;BME280;16713;52.916;12.834;2023-04-01T05:15:35;99162.91;;;8.41;87.87
29825;BME280;16713;52.916;12.834;2023-04-01T05:18:01;99168.94;;;8.17;87.03
29825;BME280;16713;52.916;12.834;2023-04-01T05:20:28;99167.22;;;7.98;87.52
29825;BME280;16713;52.916;12.834;2023-04-01T05:22:58;99173.50;;;8.06;87.59
29825;BME280;16713;52.916;12.834;2023-04-01T05:25:25;99170.13;;;8.16;88.12
29825;BME280;16713;52.916;12.834;2023-04-01T05:27:52;99172.63;;;7.95;86.31
29825;BME280;16713;52.916;12.834;2023-04-01T05:30:18;99180.81;;;7.95;87.85
29825;BME280;16713;52.916;12.834;2023-04-01T05:32:45;99186.66;;;7.93;87.08
29825;BME280;16713;52.916;12.834;2023-04-01T05:35:11;99176.16;;;7.99;87.19
29825;BME280;16713;52.916;12.834;2023-04-01T05:37:38;99178.50;;;7.97;87.40
29825;BME280;16713;52.916;12.834;2023-04-01T05:40:05;99174.38;;;7.80;87.67
29825;BME280;16713;52.916;12.834;2023-04-01T05:42:31;99181.50;;;7.25;88.30
29825;BME280;16713;52.916;12.834;2023-04-01T05:44:58;99188.06;;;7.50;88.50
29825;BME280;16713;52.916;12.834;2023-04-01T05:47:24;99192.53;;;7.65;88.51
29825;BME280;16713;52.916;12.834;2023-04-01T05:49:51;99190.28;;;7.41;87.88
29825;BME280;16713;52.916;12.834;2023-04-01T05:52:17;99192.03;;;7.27;88.17
29825;BME280;16713;52.916;12.834;2023-04-01T05:54:43;99193.94;;;7.52;87.96
29825;BME280;16713;52.916;12.834;2023-04-01T05:57:10;99198.56;;;6.93;87.72
29825;BME280;16713;52.916;12.834;2023-04-01T05:59:36;99207.97;;;7.25;89.48
29825;BME280;16713;52.916;12.834;2023-04-01T06:02:03;99210.53;;;7.40;87.69
29825;BME280;16713;52.916;12.834;2023-04-01T06:04:35;99211.94;;;7.27;88.64
29825;BME280;16713;52.916;12.834;2023-04-01T06:07:11;99215.91;;;7.33;87.55
29825;BME280;16713;52.916;12.834;2023-04-01T06:09:39;99224.63;;;7.16;88.05
29825;BME280;16713;52.916;12.834;2023-04-01T06:12:28;99219.28;;;6.97;88.06
29825;BME280;16713;52.916;12.834;2023-04-01T06:26:12;99232.94;;;7.27;88.31
29825;BME280;16713;52.916;12.834;2023-04-01T06:28:46;99238.13;;;7.09;86.72
29825;BME280;16713;52.916;12.834;2023-04-01T06:37:07;99242.16;;;6.93;88.22
29825;BME280;16713;52.916;12.834;2023-04-01T06:40:16;99253.81;;;7.16;87.12
29825;BME280;16713;52.916;12.834;2023-04-01T06:54:03;99256.31;;;6.76;87.43
29825;BME280;16713;52.916;12.834;2023-04-01T06:56:32;99265.56;;;6.71;88.21
29825;BME280;16713;52.916;12.834;2023-04-01T06:59:05;99261.81;;;6.34;88.37
29825;BME280;16713;52.916;12.834;2023-04-01T07:01:41;99267.50;;;6.48;89.18
29825;BME280;16713;52.916;12.834;2023-04-01T07:04:16;99272.66;;;6.76;88.05
29825;BME280;16713;52.916;12.834;2023-04-01T07:09:41;99275.66;;;6.71;87.90
29825;BME280;16713;52.916;12.834;2023-04-01T07:12:15;99274.91;;;6.28;88.31
29825;BME280;16713;52.916;12.834;2023-04-01T07:14:47;99279.16;;;6.07;90.35
29825;BME280;16713;52.916;12.834;2023-04-01T07:17:31;99270.34;;;6.13;90.15
29825;BME280;16713;52.916;12.834;2023-04-01T07:20:08;99284.66;;;6.29;89.29
29825;BME280;16713;52.916;12.834;2023-04-01T07:22:49;99274.84;;;6.25;89.04
29825;BME280;16713;52.916;12.834;2023-04-01T07:25:20;99287.56;;;6.40;87.99
29825;BME280;16713;52.916;12.834;2023-04-01T07:27:50;99290.72;;;6.23;89.10
29825;BME280;16713;52.916;12.834;2023-04-01T07:30:19;99297.75;;;6.43;88.99
29825;BME280;16713;52.916;12.834;2023-04-01T07:33:13;99301.19;;;6.21;88.98
29825;BME280;16713;52.916;12.834;2023-04-01T07:36:13;99307.41;;;6.60;88.62
29825;BME280;16713;52.916;12.834;2023-04-01T07:39:12;99299.91;;;5.96;89.20
29825;BME280;16713;52.916;12.834;2023-04-01T07:41:58;99308.44;;;6.32;89.03
29825;BME280;16713;52.916;12.834;2023-04-01T07:50:18;99321.38;;;6.58;86.62
29825;BME280;16713;52.916;12.834;2023-04-01T07:58:23;99324.16;;;6.62;87.83
29825;BME280;16713;52.916;12.834;2023-04-01T08:00:56;99329.78;;;6.72;86.36
29825;BME280;16713;52.916;12.834;2023-04-01T08:03:33;99333.34;;;6.54;87.22
29825;BME280;16713;52.916;12.834;2023-04-01T08:06:16;99339.75;;;6.42;87.96
29825;BME280;16713;52.916;12.834;2023-04-01T08:22:45;99353.63;;;6.18;87.76
29825;BME280;16713;52.916;12.834;2023-04-01T08:25:33;99352.63;;;6.07;88.57
29825;BME280;16713;52.916;12.834;2023-04-01T08:30:55;99361.22;;;6.09;87.22
29825;BME280;16713;52.916;12.834;2023-04-01T08:33:26;99371.88;;;5.98;87.45
29825;BME280;16713;52.916;12.834;2023-04-01T08:36:10;99365.19;;;6.30;86.96
29825;BME280;16713;52.916;12.834;2023-04-01T08:38:57;99359.53;;;5.85;87.81
29825;BME280;16713;52.916;12.834;2023-04-01T08:52:37;99387.13;;;6.22;87.53
29825;BME280;16713;52.916;12.834;2023-04-01T09:01:51;99390.06;;;6.29;87.16
29825;BME280;16713;52.916;12.834;2023-04-01T09:04:44;99387.06;;;5.99;88.12
29825;BME280;16713;52.916;12.834;2023-04-01T09:15:53;99397.78;;;5.92;87.01
29825;BME280;16713;52.916;12.834;2023-04-01T09:40:41;99431.94;;;5.90;88.04
29825;BME280;16713;52.916;12.834;2023-04-01T09:45:58;99438.28;;;6.13;87.75
29825;BME280;16713;52.916;12.834;2023-04-01T09:51:00;99438.91;;;6.06;86.97
29825;BME280;16713;52.916;12.834;2023-04-01T10:10:47;99460.59;;;6.18;86.75
29825;BME280;16713;52.916;12.834;2023-04-01T10:13:46;99461.25;;;5.81;87.51
29825;BME280;16713;52.916;12.834;2023-04-01T10:16:26;99481.47;;;6.14;88.48
29825;BME280;16713;52.916;12.834;2023-04-01T10:19:43;99469.38;;;6.27;88.57
29825;BME280;16713;52.916;12.834;2023-04-01T10:30:36;99480.19;;;6.08;88.88
29825;BME280;16713;52.916;12.834;2023-04-01T11:03:53;99510.00;;;6.20;88.49
29825;BME280;16713;52.916;12.834;2023-04-01T11:26:49;99520.78;;;6.48;86.25
29825;BME280;16713;52.916;12.834;2023-04-01T11:35:05;99527.56;;;6.23;87.30
29825;BME280;16713;52.916;12.834;2023-04-01T11:40:59;99539.38;;;5.96;86.92
29825;BME280;16713;52.916;12.834;2023-04-01T11:46:44;99543.66;;;5.97;87.13
29825;BME280;16713;52.916;12.834;2023-04-01T11:55:14;99552.09;;;6.23;87.09
29825;BME280;16713;52.916;12.834;2023-04-01T12:04:02;99568.34;;;6.04;87.65
29825;BME280;16713;52.916;12.834;2023-04-01T12:14:56;99572.81;;;5.96;88.50
29825;BME280;16713;52.916;12.834;2023-04-01T12:17:52;99583.47;;;5.15;88.80
29825;BME280;16713;52.916;12.834;2023-04-01T12:23:35;99598.72;;;5.47;88.84
29825;BME280;16713;52.916;12.834;2023-04-01T12:40:00;99594.22;;;5.67;88.19
29825;BME280;16713;52.916;12.834;2023-04-01T12:45:27;99620.13;;;5.21;88.04
29825;BME280;16713;52.916;12.834;2023-04-01T12:56:47;99627.50;;;5.48;88.30
29825;BME280;16713;52.916;12.834;2023-04-01T12:59:42;99637.53;;;4.93;88.72
29825;BME280;16713;52.916;12.834;2023-04-01T13:18:52;99656.47;;;4.77;88.96
29825;BME280;16713;52.916;12.834;2023-04-01T13:24:30;99668.06;;;5.02;88.32
29825;BME280;16713;52.916;12.834;2023-04-01T13:28:00;99673.50;;;5.14;87.94
29825;BME280;16713;52.916;12.834;2023-04-01T13:30:08;99674.66;;;5.01;87.34
29825;BME280;16713;52.916;12.834;2023-04-01T13:38:40;99687.34;;;4.84;87.87
29825;BME280;16713;52.916;12.834;2023-04-01T13:44:05;99685.88;;;4.99;88.12
29825;BME280;16713;52.916;12.834;2023-04-01T13:46:46;99690.41;;;4.83;86.79
29825;BME280;16713;52.916;12.834;2023-04-01T13:55:26;99701.63;;;4.81;86.60
29825;BME280;16713;52.916;12.834;2023-04-01T14:03:13;99710.00;;;4.64;86.73
29825;BME280;16713;52.916;12.834;2023-04-01T14:11:20;99717.69;;;4.74;86.33
29825;BME280;16713;52.916;12.834;2023-04-01T14:19:50;99735.47;;;4.72;86.43
29825;BME280;16713;52.916;12.834;2023-04-01T14:30:30;99747.47;;;4.95;84.83
29825;BME280;16713;52.916;12.834;2023-04-01T14:42:52;99764.31;;;4.76;85.71
29825;BME280;16713;52.916;12.834;2023-04-01T14:48:37;99766.56;;;4.62;84.81
29825;BME280;16713;52.916;12.834;2023-04-01T14:51:16;99777.56;;;4.66;84.59
29825;BME280;16713;52.916;12.834;2023-04-01T14:56:40;99773.38;;;4.93;83.29
29825;BME280;16713;52.916;12.834;2023-04-01T15:01:58;99780.84;;;4.59;84.85
29825;BME280;16713;52.916;12.834;2023-04-01T15:21:23;99806.38;;;4.58;84.26
29825;BME280;16713;52.916;12.834;2023-04-01T15:24:04;99817.69;;;4.48;85.01
29825;BME280;16713;52.916;12.834;2023-04-01T15:31:54;99830.00;;;4.46;84.99
29825;BME280;16713;52.916;12.834;2023-04-01T15:34:54;99825.56;;;3.88;85.16
29825;BME280;16713;52.916;12.834;2023-04-01T16:00:30;99872.94;;;4.11;84.60
29825;BME280;16713;52.916;12.834;2023-04-01T16:11:28;99884.97;;;4.02;84.01
29825;BME280;16713;52.916;12.834;2023-04-01T16:22:23;99905.38;;;3.58;85.23
29825;BME280;16713;52.916;12.834;2023-04-01T16:28:18;99926.38;;;3.90;84.44
29825;BME280;16713;52.916;12.834;2023-04-01T16:33:55;99934.66;;;3.65;85.00
29825;BME280;16713;52.916;12.834;2023-04-01T16:41:52;99948.22;;;3.27;85.56
29825;BME280;16713;52.916;12.834;2023-04-01T16:44:25;99951.38;;;3.37;84.99
29825;BME280;16713;52.916;12.834;2023-04-01T16:46:56;99967.19;;;3.27;85.41
29825;BME280;16713;52.916;12.834;2023-04-01T16:50:05;99974.66;;;3.30;85.22
29825;BME280;16713;52.916;12.834;2023-04-01T16:55:18;99982.75;;;3.47;84.91
29825;BME280;16713;52.916;12.834;2023-04-01T16:57:50;99982.66;;;3.26;84.83
29825;BME280;16713;52.916;12.834;2023-04-01T17:03:26;99986.78;;;3.32;86.19
29825;BME280;16713;52.916;12.834;2023-04-01T17:06:10;100001.75;;;3.38;85.59
29825;BME280;16713;52.916;12.834;2023-04-01T17:09:04;99995.53;;;3.38;85.74
29825;BME280;16713;52.916;12.834;2023-04-01T17:17:00;100016.13;;;3.30;86.86
29825;BME280;16713;52.916;12.834;2023-04-01T17:19:32;100015.84;;;3.06;86.65
29825;BME280;16713;52.916;12.834;2023-04-01T17:25:25;100035.31;;;2.74;88.21
29825;BME280;16713;52.916;12.834;2023-04-01T17:35:57;100037.69;;;3.10;87.33
29825;BME280;16713;52.916;12.834;2023-04-01T17:41:36;100052.69;;;2.65;88.64
29825;BME280;16713;52.916;12.834;2023-04-01T17:46:56;100059.19;;;2.55;88.96
29825;BME280;16713;52.916;12.834;2023-04-01T17:49:55;100059.34;;;2.50;88.64
29825;BME280;16713;52.916;12.834;2023-04-01T17:52:43;100065.50;;;2.34;88.57
29825;BME280;16713;52.916;12.834;2023-04-01T17:55:49;100066.47;;;2.29;88.92
29825;BME280;16713;52.916;12.834;2023-04-01T17:58:21;100071.50;;;2.05;89.51
29825;BME280;16713;52.916;12.834;2023-04-01T18:17:49;100106.41;;;2.24;87.26
29825;BME280;16713;52.916;12.834;2023-04-01T18:23:30;100118.75;;;2.64;87.91
29825;BME280;16713;52.916;12.834;2023-04-01T18:26:05;100122.00;;;2.27;87.52
29825;BME280;16713;52.916;12.834;2023-04-01T18:28:50;100126.25;;;2.75;87.33
29825;BME280;16713;52.916;12.834;2023-04-01T18:31:21;100132.88;;;2.44;87.63
29825;BME280;16713;52.916;12.834;2023-04-01T18:34:18;100142.66;;;2.70;87.66
29825;BME280;16713;52.916;12.834;2023-04-01T18:36:54;100142.50;;;2.67;86.19
29825;BME280;16713;52.916;12.834;2023-04-01T18:39:46;100154.88;;;2.59;86.00
29825;BME280;16713;52.916;12.834;2023-04-01T18:45:14;100168.84;;;2.44;85.87
29825;BME280;16713;52.916;12.834;2023-04-01T18:48:49;100167.41;;;2.38;85.29
29825;BME280;16713;52.916;12.834;2023-04-01T18:50:58;100187.59;;;2.32;85.67
29825;BME280;16713;52.916;12.834;2023-04-01T18:54:32;100182.47;;;2.31;84.84
29825;BME280;16713;52.916;12.834;2023-04-01T18:57:04;100190.69;;;2.48;84.93
29825;BME280;16713;52.916;12.834;2023-04-01T19:05:14;100192.13;;;2.15;84.82
29825;BME280;16713;52.916;12.834;2023-04-01T19:19:21;100226.19;;;2.55;83.13
29825;BME280;16713;52.916;12.834;2023-04-01T19:21:57;100235.28;;;2.20;83.63
29825;BME280;16713;52.916;12.834;2023-04-01T19:25:15;100237.09;;;2.33;83.53
29825;BME280;16713;52.916;12.834;2023-04-01T19:27:48;100241.03;;;2.27;83.29
29825;BME280;16713;52.916;12.834;2023-04-01T19:30:26;100243.06;;;1.99;83.59
29825;BME280;16713;52.916;12.834;2023-04-01T19:44:07;100275.47;;;2.35;81.59
29825;BME280;16713;52.916;12.834;2023-04-01T19:46:44;100292.94;;;2.07;82.94
29825;BME280;16713;52.916;12.834;2023-04-01T19:50:05;100309.53;;;2.36;82.38
29825;BME280;16713;52.916;12.834;2023-04-01T19:52:21;100309.56;;;2.44;80.75
29825;BME280;16713;52.916;12.834;2023-04-01T20:03:10;100319.84;;;1.89;82.03
29825;BME280;16713;52.916;12.834;2023-04-01T20:08:49;100330.47;;;2.52;80.74
29825;BME280;16713;52.916;12.834;2023-04-01T20:11:34;100350.22;;;2.31;79.99
29825;BME280;16713;52.916;12.834;2023-04-01T20:16:49;100351.09;;;2.40;79.38
29825;BME280;16713;52.916;12.834;2023-04-01T20:19:35;100362.53;;;2.59;79.61
29825;BME280;16713;52.916;12.834;2023-04-01T20:22:08;100367.88;;;2.06;79.97
29825;BME280;16713;52.916;12.834;2023-04-01T20:24:44;100366.66;;;2.34;79.42
29825;BME280;16713;52.916;12.834;2023-04-01T20:27:26;100372.78;;;2.04;79.48
29825;BME280;16713;52.916;12.834;2023-04-01T20:30:24;100382.66;;;2.22;78.45
29825;BME280;16713;52.916;12.834;2023-04-01T20:41:27;100410.38;;;2.72;75.42
29825;BME280;16713;52.916;12.834;2023-04-01T20:44:12;100402.06;;;2.68;75.85
29825;BME280;16713;52.916;12.834;2023-04-01T20:57:38;100432.78;;;1.79;76.16
29825;BME280;16713;52.916;12.834;2023-04-01T21:00:33;100437.72;;;1.77;75.91
29825;BME280;16713;52.916;12.834;2023-04-01T21:06:08;100443.66;;;1.65;76.13
29825;BME280;16713;52.916;12.834;2023-04-01T21:11:22;100457.84;;;1.44;76.16
29825;BME280;16713;52.916;12.834;2023-04-01T21:17:01;100476.25;;;2.10;75.86
29825;BME280;16713;52.916;12.834;2023-04-01T21:19:46;100473.25;;;1.57;74.63
29825;BME280;16713;52.916;12.834;2023-04-01T21:49:19;100535.44;;;1.84;72.55
29825;BME280;16713;52.916;12.834;2023-04-01T22:02:56;100553.09;;;2.09;73.61
29825;BME280;16713;52.916;12.834;2023-04-01T22:14:28;100568.00;;;1.33;75.06
29825;BME280;16713;52.916;12.834;2023-04-01T22:17:35;100582.97;;;1.58;75.60
29825;BME280;16713;52.916;12.834;2023-04-01T22:20:27;100590.84;;;2.14;73.86
29825;BME280;16713;52.916;12.834;2023-04-01T22:26:30;100591.78;;;1.63;73.78
29825;BME280;16713;52.916;12.834;2023-04-01T22:28:52;100594.81;;;1.30;73.82
29825;BME280;16713;52.916;12.834;2023-04-01T22:31:41;100608.44;;;1.70;74.03
29825;BME280;16713;52.916;12.834;2023-04-01T22:34:17;100606.25;;;1.99;73.92
29825;BME280;16713;52.916;12.834;2023-04-01T22:40:06;100622.81;;;2.12;73.88
29825;BME280;16713;52.916;12.834;2023-04-01T22:42:44;100614.75;;;1.93;73.77
29825;BME280;16713;52.916;12.834;2023-04-01T22:47:49;100625.97;;;1.86;74.64
29825;BME280;16713;52.916;12.834;2023-04-01T22:50:32;100628.38;;;1.42;74.35
29825;BME280;16713;52.916;12.834;2023-04-01T22:56:57;100636.34;;;1.66;74.27
29825;BME280;16713;52.916;12.834;2023-04-01T22:59:15;100638.25;;;1.33;74.13
29825;BME280;16713;52.916;12.834;2023-04-01T23:01:52;100645.59;;;1.92;74.75
29825;BME280;16713;52.916;12.834;2023-04-01T23:04:24;100653.41;;;1.80;74.70
29825;BME280;16713;52.916;12.834;2023-04-01T23:07:00;100650.00;;;1.88;73.80
29825;BME280;16713;52.916;12.834;2023-04-01T23:09:31;100652.88;;;1.78;74.67
29825;BME280;16713;52.916;12.834;2023-04-01T23:12:09;100662.56;;;2.11;74.08
29825;BME280;16713;52.916;12.834;2023-04-01T23:14:47;100669.50;;;2.17;72.92
29825;BME280;16713;52.916;12.834;2023-04-01T23:17:25;100663.47;;;1.74;73.83
29825;BME280;16713;52.916;12.834;2023-04-01T23:35:51;100688.63;;;2.21;72.98
29825;BME280;16713;52.916;12.834;2023-04-01T23:38:24;100700.75;;;2.37;72.12
29825;BME280;16713;52.916;12.834;2023-04-01T23:40:53;100691.53;;;2.11;72.57
29825;BME280;16713;52.916;12.834;2023-04-01T23:43:44;100704.59;;;2.22;72.59
29825;BME280;16713;52.916;12.834;2023-04-01T23:46:12;100701.97;;;2.17;72.84
29825;BME280;16713;52.916;12.834;2023-04-01T23:48:41;100702.19;;;2.34;72.32
29825;BME280;16713;52.916;12.834;2023-04-01T23:51:27;100712.19;;;2.34;71.70
29825;BME280;16713;52.916;12.834;2023-04-01T23:54:02;100713.41;;;1.95;72.26
29825;BME280;16713;52.916;12.834;2023-04-01T23:56:41;100718.72;;;2.00;72.45
29825;BME280;16713;52.916;12.834;2023-04-01T23:59:17;100724.91;;;2.20;73.14
